sensor_id;sensor_type;location;lat;lon;timestamp;P1;durP1;ratioP1;P2;durP2;ratioP2
53644;SDS011;39547;45.554;12.068;2024-02-16T00:02:01;104.20;;;42.30;;
53644;SDS011;39547;45.554;12.068;2024-02-16T00:08:03;99.03;;;41.65;;
53644;SDS011;39547;45.554;12.068;2024-02-16T00:14:05;97.78;;;42.50;;
53644;SDS011;39547;45.554;12.068;2024-02-16T00:20:06;87.82;;;41.25;;
53644;SDS011;39547;45.554;12.068;2024-02-16T00:26:08;84.47;;;44.53;;
53644;SDS011;39547;45.554;12.068;2024-02-16T00:32:10;104.10;;;41.30;;
53644;SDS011;39547;45.554;12.068;2024-02-16T00:38:13;127.05;;;43.05;;
53644;SDS011;39547;45.554;12.068;2024-02-16T00:44:14;104.03;;;43.03;;
53644;SDS011;39547;45.554;12.068;2024-02-16T00:50:16;91.88;;;43.75;;
53644;SDS011;39547;45.554;12.068;2024-02-16T00:56:17;107.22;;;43.92;;
53644;SDS011;39547;45.554;12.068;2024-02-16T01:02:19;150.10;;;42.95;;
53644;SDS011;39547;45.554;12.068;2024-02-16T01:08:20;103.28;;;42.50;;
53644;SDS011;39547;45.554;12.068;2024-02-16T01:14:24;143.18;;;45.17;;
53644;SDS011;39547;45.554;12.068;2024-02-16T01:20:25;107.03;;;44.10;;
53644;SDS011;39547;45.554;12.068;2024-02-16T01:26:27;125.53;;;45.20;;
53644;SDS011;39547;45.554;12.068;2024-02-16T01:32:29;106.78;;;45.78;;
53644;SDS011;39547;45.554;12.068;2024-02-16T01:38:30;100.25;;;42.97;;
53644;SDS011;39547;45.554;12.068;2024-02-16T01:44:32;109.57;;;46.47;;
53644;SDS011;39547;45.554;12.068;2024-02-16T01:50:33;97.78;;;45.55;;
53644;SDS011;39547;45.554;12.068;2024-02-16T01:56:35;120.60;;;46.50;;
53644;SDS011;39547;45.554;12.068;2024-02-16T02:02:36;129.68;;;45.55;;
53644;SDS011;39547;45.554;12.068;2024-02-16T02:08:38;99.55;;;44.95;;
53644;SDS011;39547;45.554;12.068;2024-02-16T02:14:39;105.55;;;45.78;;
53644;SDS011;39547;45.554;12.068;2024-02-16T02:20:42;92.55;;;44.95;;
53644;SDS011;39547;45.554;12.068;2024-02-16T02:26:44;164.68;;;48.45;;
53644;SDS011;39547;45.554;12.068;2024-02-16T02:32:46;141.35;;;46.30;;
53644;SDS011;39547;45.554;12.068;2024-02-16T02:38:49;97.50;;;44.33;;
53644;SDS011;39547;45.554;12.068;2024-02-16T02:44:50;111.80;;;46.78;;
53644;SDS011;39547;45.554;12.068;2024-02-16T02:50:52;129.73;;;47.47;;
53644;SDS011;39547;45.554;12.068;2024-02-16T02:56:54;121.25;;;45.00;;
53644;SDS011;39547;45.554;12.068;2024-02-16T03:02:55;120.35;;;44.35;;
53644;SDS011;39547;45.554;12.068;2024-02-16T03:08:57;98.03;;;46.75;;
53644;SDS011;39547;45.554;12.068;2024-02-16T03:14:59;92.78;;;43.65;;
53644;SDS011;39547;45.554;12.068;2024-02-16T03:21:00;91.70;;;45.83;;
53644;SDS011;39547;45.554;12.068;2024-02-16T03:27:04;98.43;;;45.83;;
53644;SDS011;39547;45.554;12.068;2024-02-16T03:33:06;125.80;;;47.13;;
53644;SDS011;39547;45.554;12.068;2024-02-16T03:39:08;130.60;;;48.38;;
53644;SDS011;39547;45.554;12.068;2024-02-16T03:45:10;110.47;;;47.58;;
53644;SDS011;39547;45.554;12.068;2024-02-16T03:51:12;168.23;;;49.83;;
53644;SDS011;39547;45.554;12.068;2024-02-16T03:57:13;196.75;;;52.08;;
53644;SDS011;39547;45.554;12.068;2024-02-16T04:03:17;118.70;;;47.93;;
53644;SDS011;39547;45.554;12.068;2024-02-16T04:09:18;190.95;;;53.22;;
53644;SDS011;39547;45.554;12.068;2024-02-16T04:15:20;96.55;;;48.65;;
53644;SDS011;39547;45.554;12.068;2024-02-16T04:21:21;124.57;;;50.10;;
53644;SDS011;39547;45.554;12.068;2024-02-16T04:27:23;136.25;;;50.75;;
53644;SDS011;39547;45.554;12.068;2024-02-16T04:33:24;277.45;;;60.17;;
53644;SDS011;39547;45.554;12.068;2024-02-16T04:39:26;158.88;;;53.58;;
53644;SDS011;39547;45.554;12.068;2024-02-16T04:45:30;260.02;;;56.80;;
53644;SDS011;39547;45.554;12.068;2024-02-16T04:51:32;137.57;;;52.35;;
53644;SDS011;39547;45.554;12.068;2024-02-16T04:57:34;319.52;;;64.43;;
53644;SDS011;39547;45.554;12.068;2024-02-16T05:03:35;163.13;;;55.03;;
53644;SDS011;39547;45.554;12.068;2024-02-16T05:09:38;191.18;;;60.30;;
53644;SDS011;39547;45.554;12.068;2024-02-16T05:15:40;150.43;;;55.10;;
53644;SDS011;39547;45.554;12.068;2024-02-16T05:21:42;157.23;;;60.15;;
53644;SDS011;39547;45.554;12.068;2024-02-16T05:27:44;195.18;;;59.42;;
53644;SDS011;39547;45.554;12.068;2024-02-16T05:33:47;155.32;;;57.15;;
53644;SDS011;39547;45.554;12.068;2024-02-16T05:39:50;113.80;;;54.97;;
53644;SDS011;39547;45.554;12.068;2024-02-16T05:45:57;92.40;;;49.70;;
53644;SDS011;39547;45.554;12.068;2024-02-16T05:52:00;87.75;;;48.08;;
53644;SDS011;39547;45.554;12.068;2024-02-16T05:58:21;100.30;;;51.15;;
53644;SDS011;39547;45.554;12.068;2024-02-16T06:04:23;86.70;;;49.42;;
53644;SDS011;39547;45.554;12.068;2024-02-16T06:10:25;104.15;;;50.17;;
53644;SDS011;39547;45.554;12.068;2024-02-16T06:16:26;78.78;;;47.92;;
53644;SDS011;39547;45.554;12.068;2024-02-16T06:22:28;87.07;;;48.28;;
53644;SDS011;39547;45.554;12.068;2024-02-16T06:28:32;98.70;;;49.80;;
53644;SDS011;39547;45.554;12.068;2024-02-16T06:34:34;138.95;;;53.63;;
53644;SDS011;39547;45.554;12.068;2024-02-16T06:40:36;102.07;;;52.67;;
53644;SDS011;39547;45.554;12.068;2024-02-16T06:46:38;119.10;;;51.47;;
53644;SDS011;39547;45.554;12.068;2024-02-16T06:52:40;86.22;;;50.45;;
53644;SDS011;39547;45.554;12.068;2024-02-16T06:58:41;75.80;;;47.05;;
53644;SDS011;39547;45.554;12.068;2024-02-16T07:04:43;99.57;;;48.47;;
53644;SDS011;39547;45.554;12.068;2024-02-16T07:10:46;85.82;;;45.83;;
53644;SDS011;39547;45.554;12.068;2024-02-16T07:16:48;81.13;;;46.53;;
53644;SDS011;39547;45.554;12.068;2024-02-16T07:22:50;86.78;;;47.83;;
53644;SDS011;39547;45.554;12.068;2024-02-16T07:28:53;84.97;;;48.13;;
53644;SDS011;39547;45.554;12.068;2024-02-16T07:34:54;78.03;;;47.03;;
53644;SDS011;39547;45.554;12.068;2024-02-16T07:40:56;103.32;;;47.38;;
53644;SDS011;39547;45.554;12.068;2024-02-16T07:46:57;114.53;;;47.78;;
53644;SDS011;39547;45.554;12.068;2024-02-16T07:52:59;113.43;;;47.92;;
53644;SDS011;39547;45.554;12.068;2024-02-16T07:59:00;77.35;;;46.42;;
53644;SDS011;39547;45.554;12.068;2024-02-16T08:05:02;106.82;;;44.40;;
53644;SDS011;39547;45.554;12.068;2024-02-16T08:11:03;106.60;;;44.05;;
53644;SDS011;39547;45.554;12.068;2024-02-16T08:17:06;115.45;;;48.72;;
53644;SDS011;39547;45.554;12.068;2024-02-16T08:23:07;98.32;;;46.47;;
53644;SDS011;39547;45.554;12.068;2024-02-16T08:29:09;91.72;;;46.40;;
53644;SDS011;39547;45.554;12.068;2024-02-16T08:35:10;81.00;;;46.20;;
53644;SDS011;39547;45.554;12.068;2024-02-16T08:41:15;112.47;;;46.95;;
53644;SDS011;39547;45.554;12.068;2024-02-16T08:47:16;136.93;;;47.72;;
53644;SDS011;39547;45.554;12.068;2024-02-16T08:53:18;110.57;;;46.97;;
53644;SDS011;39547;45.554;12.068;2024-02-16T09:06:11;86.00;;;43.67;;
53644;SDS011;39547;45.554;12.068;2024-02-16T09:12:13;103.28;;;44.00;;
53644;SDS011;39547;45.554;12.068;2024-02-16T09:18:15;118.30;;;46.97;;
53644;SDS011;39547;45.554;12.068;2024-02-16T09:24:16;80.45;;;47.00;;
53644;SDS011;39547;45.554;12.068;2024-02-16T09:30:19;76.60;;;46.15;;
53644;SDS011;39547;45.554;12.068;2024-02-16T09:36:22;80.22;;;45.65;;
53644;SDS011;39547;45.554;12.068;2024-02-16T09:42:24;74.10;;;46.28;;
53644;SDS011;39547;45.554;12.068;2024-02-16T09:48:29;80.03;;;46.30;;
53644;SDS011;39547;45.554;12.068;2024-02-16T09:54:33;77.03;;;46.17;;
53644;SDS011;39547;45.554;12.068;2024-02-16T10:07:09;81.88;;;48.53;;
53644;SDS011;39547;45.554;12.068;2024-02-16T10:13:10;82.30;;;48.50;;
53644;SDS011;39547;45.554;12.068;2024-02-16T10:19:12;87.53;;;51.55;;
53644;SDS011;39547;45.554;12.068;2024-02-16T10:25:15;90.93;;;53.05;;
53644;SDS011;39547;45.554;12.068;2024-02-16T10:31:16;112.88;;;62.03;;
53644;SDS011;39547;45.554;12.068;2024-02-16T10:37:18;115.95;;;61.72;;
53644;SDS011;39547;45.554;12.068;2024-02-16T10:43:20;102.88;;;58.17;;
53644;SDS011;39547;45.554;12.068;2024-02-16T10:49:23;99.85;;;56.28;;
53644;SDS011;39547;45.554;12.068;2024-02-16T10:55:25;107.20;;;59.45;;
53644;SDS011;39547;45.554;12.068;2024-02-16T11:01:27;100.75;;;56.75;;
53644;SDS011;39547;45.554;12.068;2024-02-16T11:07:32;97.65;;;54.40;;
53644;SDS011;39547;45.554;12.068;2024-02-16T11:13:34;101.95;;;57.05;;
53644;SDS011;39547;45.554;12.068;2024-02-16T11:19:40;105.95;;;59.60;;
53644;SDS011;39547;45.554;12.068;2024-02-16T11:25:51;107.60;;;60.08;;
53644;SDS011;39547;45.554;12.068;2024-02-16T11:31:52;104.80;;;59.45;;
53644;SDS011;39547;45.554;12.068;2024-02-16T11:37:58;100.15;;;56.85;;
53644;SDS011;39547;45.554;12.068;2024-02-16T11:44:00;100.07;;;56.97;;
53644;SDS011;39547;45.554;12.068;2024-02-16T11:50:03;104.88;;;59.22;;
53644;SDS011;39547;45.554;12.068;2024-02-16T11:56:06;97.38;;;55.95;;
53644;SDS011;39547;45.554;12.068;2024-02-16T12:02:07;107.88;;;60.92;;
53644;SDS011;39547;45.554;12.068;2024-02-16T12:08:22;114.60;;;63.93;;
53644;SDS011;39547;45.554;12.068;2024-02-16T12:14:24;108.72;;;61.85;;
53644;SDS011;39547;45.554;12.068;2024-02-16T12:20:26;101.65;;;59.22;;
53644;SDS011;39547;45.554;12.068;2024-02-16T12:26:28;98.53;;;58.58;;
53644;SDS011;39547;45.554;12.068;2024-02-16T12:32:30;96.43;;;55.17;;
53644;SDS011;39547;45.554;12.068;2024-02-16T12:38:31;98.15;;;57.38;;
53644;SDS011;39547;45.554;12.068;2024-02-16T12:44:33;104.25;;;58.67;;
53644;SDS011;39547;45.554;12.068;2024-02-16T12:50:35;97.97;;;56.40;;
53644;SDS011;39547;45.554;12.068;2024-02-16T12:56:43;98.07;;;55.72;;
53644;SDS011;39547;45.554;12.068;2024-02-16T13:02:46;93.20;;;56.47;;
53644;SDS011;39547;45.554;12.068;2024-02-16T13:08:48;96.82;;;55.45;;
53644;SDS011;39547;45.554;12.068;2024-02-16T13:14:50;106.07;;;60.13;;
53644;SDS011;39547;45.554;12.068;2024-02-16T13:20:51;108.57;;;62.78;;
53644;SDS011;39547;45.554;12.068;2024-02-16T13:26:53;113.55;;;62.97;;
53644;SDS011;39547;45.554;12.068;2024-02-16T13:32:54;105.70;;;62.47;;
53644;SDS011;39547;45.554;12.068;2024-02-16T13:38:56;103.82;;;59.95;;
53644;SDS011;39547;45.554;12.068;2024-02-16T13:44:58;106.40;;;62.90;;
53644;SDS011;39547;45.554;12.068;2024-02-16T13:50:59;108.97;;;61.72;;
53644;SDS011;39547;45.554;12.068;2024-02-16T13:57:05;114.70;;;66.35;;
53644;SDS011;39547;45.554;12.068;2024-02-16T14:03:10;113.07;;;64.97;;
53644;SDS011;39547;45.554;12.068;2024-02-16T14:09:13;111.13;;;63.30;;
53644;SDS011;39547;45.554;12.068;2024-02-16T14:15:14;110.38;;;64.43;;
53644;SDS011;39547;45.554;12.068;2024-02-16T14:21:16;106.80;;;62.35;;
53644;SDS011;39547;45.554;12.068;2024-02-16T14:27:18;114.05;;;65.38;;
53644;SDS011;39547;45.554;12.068;2024-02-16T14:33:20;117.78;;;66.18;;
53644;SDS011;39547;45.554;12.068;2024-02-16T14:39:22;116.78;;;67.10;;
53644;SDS011;39547;45.554;12.068;2024-02-16T14:45:26;123.15;;;70.18;;
53644;SDS011;39547;45.554;12.068;2024-02-16T14:51:27;125.15;;;70.45;;
53644;SDS011;39547;45.554;12.068;2024-02-16T14:57:29;128.43;;;67.97;;
53644;SDS011;39547;45.554;12.068;2024-02-16T15:03:30;131.15;;;73.75;;
53644;SDS011;39547;45.554;12.068;2024-02-16T15:09:33;135.63;;;75.97;;
53644;SDS011;39547;45.554;12.068;2024-02-16T15:15:34;133.25;;;75.25;;
53644;SDS011;39547;45.554;12.068;2024-02-16T15:21:36;138.52;;;78.80;;
53644;SDS011;39547;45.554;12.068;2024-02-16T15:27:37;140.15;;;79.35;;
53644;SDS011;39547;45.554;12.068;2024-02-16T15:33:39;152.18;;;84.13;;
53644;SDS011;39547;45.554;12.068;2024-02-16T15:39:40;152.63;;;80.53;;
53644;SDS011;39547;45.554;12.068;2024-02-16T15:45:43;149.90;;;83.03;;
53644;SDS011;39547;45.554;12.068;2024-02-16T15:51:46;164.02;;;85.70;;
53644;SDS011;39547;45.554;12.068;2024-02-16T15:57:48;164.10;;;85.40;;
53644;SDS011;39547;45.554;12.068;2024-02-16T16:03:49;164.45;;;85.93;;
53644;SDS011;39547;45.554;12.068;2024-02-16T16:09:54;170.35;;;87.85;;
53644;SDS011;39547;45.554;12.068;2024-02-16T16:15:58;175.15;;;90.50;;
53644;SDS011;39547;45.554;12.068;2024-02-16T16:22:00;169.00;;;87.75;;
53644;SDS011;39547;45.554;12.068;2024-02-16T16:28:03;177.35;;;88.15;;
53644;SDS011;39547;45.554;12.068;2024-02-16T16:34:04;174.90;;;88.60;;
53644;SDS011;39547;45.554;12.068;2024-02-16T16:40:06;181.38;;;90.35;;
53644;SDS011;39547;45.554;12.068;2024-02-16T16:46:09;179.35;;;87.80;;
53644;SDS011;39547;45.554;12.068;2024-02-16T16:52:11;212.48;;;96.15;;
53644;SDS011;39547;45.554;12.068;2024-02-16T16:58:13;254.73;;;95.55;;
53644;SDS011;39547;45.554;12.068;2024-02-16T17:04:14;239.30;;;91.50;;
53644;SDS011;39547;45.554;12.068;2024-02-16T17:10:16;283.13;;;97.38;;
53644;SDS011;39547;45.554;12.068;2024-02-16T17:16:18;269.55;;;96.65;;
53644;SDS011;39547;45.554;12.068;2024-02-16T17:22:20;257.75;;;95.63;;
53644;SDS011;39547;45.554;12.068;2024-02-16T17:28:21;210.48;;;90.60;;
53644;SDS011;39547;45.554;12.068;2024-02-16T17:34:25;250.30;;;85.60;;
53644;SDS011;39547;45.554;12.068;2024-02-16T17:40:27;216.63;;;87.45;;
53644;SDS011;39547;45.554;12.068;2024-02-16T17:46:28;282.88;;;91.38;;
53644;SDS011;39547;45.554;12.068;2024-02-16T17:52:30;238.60;;;90.00;;
53644;SDS011;39547;45.554;12.068;2024-02-16T17:58:32;212.73;;;85.88;;
53644;SDS011;39547;45.554;12.068;2024-02-16T18:04:34;230.13;;;87.88;;
53644;SDS011;39547;45.554;12.068;2024-02-16T18:10:35;195.48;;;87.07;;
53644;SDS011;39547;45.554;12.068;2024-02-16T18:16:37;241.93;;;89.72;;
53644;SDS011;39547;45.554;12.068;2024-02-16T18:22:38;268.65;;;87.60;;
53644;SDS011;39547;45.554;12.068;2024-02-16T18:28:40;222.68;;;86.43;;
53644;SDS011;39547;45.554;12.068;2024-02-16T18:34:42;185.90;;;82.30;;
53644;SDS011;39547;45.554;12.068;2024-02-16T18:40:44;214.98;;;88.78;;
53644;SDS011;39547;45.554;12.068;2024-02-16T18:46:45;173.82;;;83.53;;
53644;SDS011;39547;45.554;12.068;2024-02-16T18:52:48;208.82;;;85.32;;
53644;SDS011;39547;45.554;12.068;2024-02-16T18:58:51;211.73;;;83.03;;
53644;SDS011;39547;45.554;12.068;2024-02-16T19:04:53;181.02;;;81.32;;
53644;SDS011;39547;45.554;12.068;2024-02-16T19:10:54;174.25;;;80.22;;
53644;SDS011;39547;45.554;12.068;2024-02-16T19:16:57;173.80;;;81.75;;
53644;SDS011;39547;45.554;12.068;2024-02-16T19:22:58;167.10;;;79.93;;
53644;SDS011;39547;45.554;12.068;2024-02-16T19:29:00;170.30;;;77.35;;
53644;SDS011;39547;45.554;12.068;2024-02-16T19:35:02;176.90;;;77.72;;
53644;SDS011;39547;45.554;12.068;2024-02-16T19:41:04;237.43;;;76.38;;
53644;SDS011;39547;45.554;12.068;2024-02-16T19:47:05;175.88;;;73.00;;
53644;SDS011;39547;45.554;12.068;2024-02-16T19:53:07;172.77;;;74.82;;
53644;SDS011;39547;45.554;12.068;2024-02-16T19:59:10;163.50;;;74.15;;
53644;SDS011;39547;45.554;12.068;2024-02-16T20:05:13;198.13;;;77.25;;
53644;SDS011;39547;45.554;12.068;2024-02-16T20:11:19;182.40;;;75.85;;
53644;SDS011;39547;45.554;12.068;2024-02-16T20:17:23;176.10;;;76.70;;
53644;SDS011;39547;45.554;12.068;2024-02-16T20:23:26;172.50;;;77.32;;
53644;SDS011;39547;45.554;12.068;2024-02-16T20:29:27;247.23;;;81.53;;
53644;SDS011;39547;45.554;12.068;2024-02-16T20:35:30;257.90;;;84.63;;
53644;SDS011;39547;45.554;12.068;2024-02-16T20:41:34;162.50;;;76.97;;
53644;SDS011;39547;45.554;12.068;2024-02-16T20:47:38;152.60;;;77.10;;
53644;SDS011;39547;45.554;12.068;2024-02-16T20:53:40;240.95;;;83.00;;
53644;SDS011;39547;45.554;12.068;2024-02-16T20:59:41;238.13;;;83.70;;
53644;SDS011;39547;45.554;12.068;2024-02-16T21:05:43;270.65;;;89.45;;
53644;SDS011;39547;45.554;12.068;2024-02-16T21:11:44;360.10;;;94.32;;
53644;SDS011;39547;45.554;12.068;2024-02-16T21:17:46;295.05;;;89.43;;
53644;SDS011;39547;45.554;12.068;2024-02-16T21:23:48;240.90;;;85.53;;
53644;SDS011;39547;45.554;12.068;2024-02-16T21:29:50;199.18;;;85.90;;
53644;SDS011;39547;45.554;12.068;2024-02-16T21:35:52;182.38;;;83.05;;
53644;SDS011;39547;45.554;12.068;2024-02-16T21:41:57;167.32;;;79.50;;
53644;SDS011;39547;45.554;12.068;2024-02-16T21:47:59;152.43;;;77.78;;
53644;SDS011;39547;45.554;12.068;2024-02-16T21:54:03;200.32;;;79.40;;
53644;SDS011;39547;45.554;12.068;2024-02-16T22:00:07;161.07;;;79.10;;
53644;SDS011;39547;45.554;12.068;2024-02-16T22:06:09;212.57;;;78.85;;
53644;SDS011;39547;45.554;12.068;2024-02-16T22:12:12;302.80;;;88.85;;
53644;SDS011;39547;45.554;12.068;2024-02-16T22:18:15;265.60;;;80.97;;
53644;SDS011;39547;45.554;12.068;2024-02-16T22:24:16;195.32;;;75.20;;
53644;SDS011;39547;45.554;12.068;2024-02-16T22:30:18;275.05;;;72.25;;
53644;SDS011;39547;45.554;12.068;2024-02-16T22:36:19;302.50;;;74.03;;
53644;SDS011;39547;45.554;12.068;2024-02-16T22:42:21;149.38;;;68.50;;
53644;SDS011;39547;45.554;12.068;2024-02-16T22:48:23;126.75;;;66.55;;
53644;SDS011;39547;45.554;12.068;2024-02-16T22:54:24;142.80;;;67.30;;
53644;SDS011;39547;45.554;12.068;2024-02-16T23:00:26;242.95;;;73.00;;
53644;SDS011;39547;45.554;12.068;2024-02-16T23:06:27;175.02;;;68.38;;
53644;SDS011;39547;45.554;12.068;2024-02-16T23:12:29;184.63;;;66.88;;
53644;SDS011;39547;45.554;12.068;2024-02-16T23:18:30;156.15;;;64.90;;
53644;SDS011;39547;45.554;12.068;2024-02-16T23:24:32;123.32;;;62.47;;
53644;SDS011;39547;45.554;12.068;2024-02-16T23:30:34;155.88;;;63.60;;
53644;SDS011;39547;45.554;12.068;2024-02-16T23:36:36;130.05;;;63.63;;
53644;SDS011;39547;45.554;12.068;2024-02-16T23:42:38;141.80;;;62.60;;
53644;SDS011;39547;45.554;12.068;2024-02-16T23:48:39;126.28;;;64.15;;
53644;SDS011;39547;45.554;12.068;2024-02-16T23:54:42;125.97;;;60.47;;
